createdAt,value
2022-07-29T00:04:36.241Z,20.84
2022-07-29T00:09:41.935Z,20.99
2022-07-29T00:14:56.901Z,20.99
2022-07-29T00:19:59.652Z,21.03
2022-07-29T00:25:02.272Z,21.00
2022-07-29T00:30:07.748Z,21.00
2022-07-29T00:35:29.374Z,20.94
2022-07-29T00:40:32.022Z,20.93
2022-07-29T00:45:36.599Z,20.88
2022-07-29T00:50:39.513Z,20.83
2022-07-29T00:55:42.164Z,20.94
2022-07-29T01:00:46.350Z,20.78
2022-07-29T01:05:50.638Z,20.69
2022-07-29T01:10:55.117Z,20.43
2022-07-29T01:16:05.309Z,20.17
2022-07-29T01:21:38.745Z,20.24
2022-07-29T01:26:50.957Z,20.42
2022-07-29T01:32:00.906Z,20.57
2022-07-29T01:37:09.594Z,20.63
2022-07-29T01:42:17.825Z,20.45
2022-07-29T01:47:27.379Z,20.40
2022-07-29T01:52:36.018Z,20.14
2022-07-29T01:57:41.336Z,20.10
2022-07-29T02:02:49.173Z,20.26
2022-07-29T02:07:54.137Z,20.27
2022-07-29T02:12:59.151Z,20.04
2022-07-29T02:18:08.842Z,20.14
2022-07-29T02:23:13.778Z,19.99
2022-07-29T02:28:18.139Z,20.25
2022-07-29T02:33:24.596Z,20.24
2022-07-29T02:38:47.212Z,20.18
2022-07-29T02:43:54.613Z,20.10
2022-07-29T02:49:05.106Z,20.05
2022-07-29T02:54:11.161Z,19.86
2022-07-29T02:59:22.010Z,19.62
2022-07-29T03:04:29.272Z,19.74
2022-07-29T03:09:32.495Z,19.58
2022-07-29T03:14:36.972Z,19.48
2022-07-29T03:19:41.526Z,19.28
2022-07-29T03:24:44.181Z,19.46
2022-07-29T03:29:49.770Z,19.34
2022-07-29T03:34:54.744Z,19.22
2022-07-29T03:39:59.468Z,19.56
2022-07-29T03:45:05.310Z,19.54
2022-07-29T03:50:12.661Z,19.79
2022-07-29T03:55:16.613Z,19.86
2022-07-29T04:00:20.623Z,19.77
2022-07-29T04:05:24.849Z,19.86
2022-07-29T04:10:31.691Z,19.71
2022-07-29T04:15:34.886Z,19.56
2022-07-29T04:20:39.285Z,19.28
2022-07-29T04:25:42.596Z,18.94
2022-07-29T04:30:45.375Z,18.45
2022-07-29T04:35:50.403Z,18.15
2022-07-29T04:40:55.168Z,17.97
2022-07-29T04:45:59.014Z,18.27
2022-07-29T04:51:03.216Z,17.93
2022-07-29T04:56:06.636Z,17.61
2022-07-29T05:01:09.345Z,17.35
2022-07-29T05:06:13.723Z,17.24
2022-07-29T05:11:21.339Z,17.99
2022-07-29T05:16:25.114Z,17.83
2022-07-29T05:21:29.169Z,17.69
2022-07-29T05:26:31.770Z,17.74
2022-07-29T05:31:34.471Z,18.34
2022-07-29T05:36:38.411Z,18.55
2022-07-29T05:41:42.054Z,18.28
2022-07-29T05:46:44.953Z,18.38
2022-07-29T05:51:50.197Z,18.15
2022-07-29T05:56:52.778Z,18.18
2022-07-29T06:01:55.607Z,18.08
2022-07-29T06:06:59.821Z,18.19
2022-07-29T06:12:02.416Z,18.33
2022-07-29T06:17:05.506Z,18.42
2022-07-29T06:22:09.411Z,18.43
2022-07-29T06:27:12.211Z,18.39
2022-07-29T06:32:16.006Z,18.15
2022-07-29T06:37:19.902Z,18.28
2022-07-29T06:42:22.641Z,18.13
2022-07-29T06:47:25.603Z,18.46
2022-07-29T06:52:30.308Z,18.59
2022-07-29T06:57:34.093Z,18.60
2022-07-29T07:02:37.042Z,18.51
2022-07-29T07:07:41.180Z,18.37
2022-07-29T07:12:44.026Z,18.17
2022-07-29T07:17:47.089Z,17.99
2022-07-29T07:22:51.029Z,17.72
2022-07-29T07:27:53.744Z,17.54
2022-07-29T07:32:56.350Z,17.71
2022-07-29T07:38:01.016Z,17.58
2022-07-29T07:43:03.840Z,17.50
2022-07-29T07:48:11.678Z,17.87
2022-07-29T07:53:16.819Z,17.49
2022-07-29T07:58:19.408Z,17.44
2022-07-29T08:03:22.207Z,17.65
2022-07-29T08:08:26.128Z,17.73
2022-07-29T08:13:29.732Z,17.62
2022-07-29T08:18:33.443Z,17.72
2022-07-29T08:23:46.893Z,17.69
2022-07-29T08:28:51.755Z,17.67
2022-07-29T08:33:54.452Z,18.14
2022-07-29T08:38:58.658Z,17.89
2022-07-29T08:44:01.212Z,17.95
2022-07-29T08:49:04.133Z,18.07
2022-07-29T08:54:11.007Z,18.03
2022-07-29T08:59:15.103Z,18.39
2022-07-29T09:04:20.676Z,18.37
2022-07-29T09:09:24.765Z,18.41
2022-07-29T09:14:27.500Z,18.77
2022-07-29T09:19:35.105Z,19.01
2022-07-29T09:24:42.384Z,19.01
2022-07-29T09:29:45.448Z,18.98
2022-07-29T09:34:48.408Z,19.06
2022-07-29T09:39:53.440Z,18.96
2022-07-29T09:44:56.540Z,19.19
2022-07-29T09:50:01.394Z,19.36
2022-07-29T09:55:17.890Z,19.38
2022-07-29T10:00:23.990Z,19.62
2022-07-29T10:05:36.815Z,19.69
2022-07-29T10:10:43.451Z,19.43
2022-07-29T10:15:47.252Z,19.75
2022-07-29T10:20:50.416Z,19.82
2022-07-29T10:25:54.844Z,19.66
2022-07-29T10:31:03.954Z,19.92
2022-07-29T10:36:34.492Z,20.04
2022-07-29T10:42:01.318Z,20.09
2022-07-29T10:47:06.550Z,19.97
2022-07-29T10:52:11.407Z,19.95
2022-07-29T10:57:18.359Z,19.97
2022-07-29T11:08:26.533Z,20.46
2022-07-29T11:13:55.942Z,20.82
2022-07-29T11:19:29.852Z,21.11
2022-07-29T11:24:35.678Z,21.17
2022-07-29T11:29:43.110Z,21.38
2022-07-29T11:34:46.368Z,21.51
2022-07-29T11:40:11.438Z,21.61
2022-07-29T11:45:43.218Z,21.73
2022-07-29T11:50:44.305Z,21.58
2022-07-29T12:01:19.394Z,21.38
2022-07-29T12:06:22.460Z,21.20
2022-07-29T12:11:25.295Z,21.34
2022-07-29T12:16:38.202Z,21.16
2022-07-29T12:21:53.817Z,21.22
2022-07-29T12:27:01.058Z,21.26
2022-07-29T12:32:14.757Z,21.28
2022-07-29T12:37:30.978Z,21.36
2022-07-29T12:43:10.115Z,21.31
2022-07-29T12:48:13.742Z,21.28
2022-07-29T12:53:17.658Z,21.29
2022-07-29T12:58:35.674Z,21.29
2022-07-29T13:03:57.195Z,21.34
2022-07-29T13:09:09.453Z,21.45
2022-07-29T13:14:16.232Z,21.45
2022-07-29T13:19:19.043Z,21.45
2022-07-29T13:24:22.601Z,21.43
2022-07-29T13:29:31.351Z,21.54
2022-07-29T13:34:34.744Z,21.92
2022-07-29T13:39:38.273Z,22.16
2022-07-29T13:44:42.811Z,22.37
2022-07-29T13:49:45.433Z,22.55
2022-07-29T13:54:48.530Z,22.78
2022-07-29T13:59:54.477Z,23.00
2022-07-29T14:04:57.411Z,23.20
2022-07-29T14:10:00.133Z,23.45
2022-07-29T14:15:05.277Z,24.06
2022-07-29T14:20:08.819Z,24.85
2022-07-29T14:25:15.082Z,25.44
2022-07-29T14:30:19.931Z,25.93
2022-07-29T14:35:22.504Z,26.15
2022-07-29T14:40:26.541Z,26.13
2022-07-29T14:45:30.818Z,25.78
2022-07-29T14:50:33.878Z,25.60
2022-07-29T14:55:36.604Z,25.41
2022-07-29T15:00:40.926Z,25.28
2022-07-29T15:05:43.686Z,25.00
2022-07-29T15:10:46.377Z,24.89
2022-07-29T15:15:50.777Z,24.84
2022-07-29T15:20:53.350Z,24.75
2022-07-29T15:25:56.963Z,24.66
2022-07-29T15:31:01.078Z,24.47
2022-07-29T15:36:10.193Z,24.42
2022-07-29T15:41:15.661Z,24.32
2022-07-29T15:46:38.812Z,24.16
2022-07-29T15:51:41.672Z,24.12
2022-07-29T15:56:44.596Z,24.08
2022-07-29T16:01:48.745Z,24.08
2022-07-29T16:06:52.077Z,24.10
2022-07-29T16:11:56.177Z,24.11
2022-07-29T16:17:03.861Z,24.06
2022-07-29T16:22:06.821Z,24.05
2022-07-29T16:27:09.864Z,24.02
2022-07-29T16:32:13.807Z,24.01
2022-07-29T16:37:16.811Z,24.00
2022-07-29T16:42:36.950Z,23.88
2022-07-29T16:47:44.156Z,23.98
2022-07-29T16:52:46.895Z,23.93
2022-07-29T16:57:49.697Z,23.90
2022-07-29T17:02:56.472Z,23.77
2022-07-29T17:07:59.087Z,23.63
2022-07-29T17:13:02.164Z,23.63
2022-07-29T17:18:12.357Z,23.65
2022-07-29T17:23:15.562Z,23.56
2022-07-29T17:28:18.201Z,23.52
2022-07-29T17:33:22.687Z,23.40
2022-07-29T17:38:25.458Z,23.33
2022-07-29T17:43:28.077Z,23.31
2022-07-29T17:48:32.059Z,23.25
2022-07-29T17:53:34.816Z,23.23
2022-07-29T17:58:38.847Z,23.15
2022-07-29T18:03:44.199Z,23.20
2022-07-29T18:08:47.459Z,23.16
2022-07-29T18:13:50.236Z,23.13
2022-07-29T18:18:55.689Z,23.05
2022-07-29T18:23:58.315Z,23.07
2022-07-29T18:29:00.914Z,22.99
2022-07-29T18:34:06.139Z,22.93
2022-07-29T18:39:08.849Z,22.82
2022-07-29T18:44:16.847Z,22.73
2022-07-29T18:49:21.433Z,22.61
2022-07-29T18:54:24.173Z,22.52
2022-07-29T18:59:28.239Z,22.42
2022-07-29T19:04:32.330Z,22.28
2022-07-29T19:09:35.449Z,22.18
2022-07-29T19:14:51.803Z,22.05
2022-07-29T19:19:55.819Z,22.03
2022-07-29T19:24:58.453Z,21.96
2022-07-29T19:30:03.298Z,21.88
2022-07-29T19:35:28.047Z,21.79
2022-07-29T19:40:30.906Z,21.70
2022-07-29T19:45:34.265Z,21.56
2022-07-29T19:50:38.639Z,21.44
2022-07-29T19:55:42.307Z,21.41
2022-07-29T20:00:44.951Z,21.41
2022-07-29T20:05:51.137Z,21.22
2022-07-29T20:10:54.771Z,21.33
2022-07-29T20:15:57.616Z,20.91
2022-07-29T20:21:01.707Z,20.70
2022-07-29T20:26:09.762Z,20.97
2022-07-29T20:31:15.383Z,21.03
2022-07-29T20:36:19.360Z,20.86
2022-07-29T20:41:22.144Z,20.97
2022-07-29T20:46:24.775Z,20.66
2022-07-29T20:51:28.755Z,20.85
2022-07-29T20:56:31.319Z,20.83
2022-07-29T21:01:34.125Z,20.88
2022-07-29T21:06:38.208Z,20.82
2022-07-29T21:11:43.611Z,20.67
2022-07-29T21:16:47.652Z,20.62
2022-07-29T21:21:51.895Z,20.54
2022-07-29T21:27:21.365Z,20.68
2022-07-29T21:32:27.681Z,20.45
2022-07-29T21:37:34.556Z,20.38
2022-07-29T21:42:37.192Z,20.61
2022-07-29T21:47:40.204Z,20.37
2022-07-29T21:52:44.244Z,20.60
2022-07-29T21:57:46.989Z,20.58
2022-07-29T22:02:49.610Z,20.61
2022-07-29T22:07:56.838Z,20.39
2022-07-29T22:13:02.408Z,20.35
2022-07-29T22:18:05.206Z,20.08
2022-07-29T22:23:09.256Z,20.10
2022-07-29T22:28:11.843Z,20.35
2022-07-29T22:33:17.439Z,20.40
2022-07-29T22:38:22.191Z,20.23
2022-07-29T22:43:25.141Z,20.02
2022-07-29T22:48:28.063Z,19.84
2022-07-29T22:53:32.131Z,20.00
2022-07-29T22:58:34.943Z,19.75
2022-07-29T23:03:37.962Z,20.13
2022-07-29T23:08:41.971Z,19.41
2022-07-29T23:13:44.642Z,19.86
2022-07-29T23:18:47.270Z,19.55
2022-07-29T23:23:51.388Z,19.62
2022-07-29T23:28:53.968Z,19.49
2022-07-29T23:33:56.552Z,19.77
2022-07-29T23:39:00.455Z,19.90
2022-07-29T23:44:03.138Z,19.95
2022-07-29T23:49:07.140Z,19.88
2022-07-29T23:54:11.188Z,19.89
2022-07-29T23:59:14.271Z,19.92
